sensor_id;sensor_type;location;lat;lon;timestamp;P1;durP1;ratioP1;P2;durP2;ratioP2
20657;SDS011;10488;50.846;4.078;2023-02-01T00:00:50;44.55;;;17.50;;
20657;SDS011;10488;50.846;4.078;2023-02-01T00:03:16;40.70;;;13.95;;
20657;SDS011;10488;50.846;4.078;2023-02-01T00:05:54;39.10;;;14.20;;
20657;SDS011;10488;50.846;4.078;2023-02-01T00:08:21;40.92;;;13.75;;
20657;SDS011;10488;50.846;4.078;2023-02-01T00:10:47;41.72;;;13.85;;
20657;SDS011;10488;50.846;4.078;2023-02-01T00:13:14;42.20;;;14.75;;
20657;SDS011;10488;50.846;4.078;2023-02-01T00:15:40;33.70;;;13.48;;
20657;SDS011;10488;50.846;4.078;2023-02-01T00:18:07;39.97;;;12.82;;
20657;SDS011;10488;50.846;4.078;2023-02-01T00:20:34;23.80;;;11.98;;
20657;SDS011;10488;50.846;4.078;2023-02-01T00:23:01;26.13;;;11.48;;
20657;SDS011;10488;50.846;4.078;2023-02-01T00:25:27;39.13;;;12.57;;
20657;SDS011;10488;50.846;4.078;2023-02-01T00:27:53;36.53;;;13.32;;
20657;SDS011;10488;50.846;4.078;2023-02-01T00:30:22;33.70;;;12.20;;
20657;SDS011;10488;50.846;4.078;2023-02-01T00:32:48;31.10;;;11.75;;
20657;SDS011;10488;50.846;4.078;2023-02-01T00:35:13;29.13;;;11.70;;
20657;SDS011;10488;50.846;4.078;2023-02-01T00:37:40;30.40;;;10.30;;
20657;SDS011;10488;50.846;4.078;2023-02-01T00:40:06;36.58;;;10.90;;
20657;SDS011;10488;50.846;4.078;2023-02-01T00:42:35;23.73;;;9.93;;
20657;SDS011;10488;50.846;4.078;2023-02-01T00:45:01;26.90;;;9.73;;
20657;SDS011;10488;50.846;4.078;2023-02-01T00:47:26;21.42;;;8.85;;
20657;SDS011;10488;50.846;4.078;2023-02-01T00:49:53;28.83;;;8.93;;
20657;SDS011;10488;50.846;4.078;2023-02-01T00:52:24;26.77;;;8.98;;
20657;SDS011;10488;50.846;4.078;2023-02-01T00:54:52;28.00;;;8.40;;
20657;SDS011;10488;50.846;4.078;2023-02-01T00:57:20;31.35;;;8.00;;
20657;SDS011;10488;50.846;4.078;2023-02-01T00:59:46;27.70;;;7.85;;
20657;SDS011;10488;50.846;4.078;2023-02-01T01:02:13;27.73;;;7.38;;
20657;SDS011;10488;50.846;4.078;2023-02-01T01:04:40;19.17;;;6.05;;
20657;SDS011;10488;50.846;4.078;2023-02-01T01:07:08;28.23;;;5.80;;
20657;SDS011;10488;50.846;4.078;2023-02-01T01:09:33;28.35;;;6.43;;
20657;SDS011;10488;50.846;4.078;2023-02-01T01:11:59;18.02;;;5.68;;
20657;SDS011;10488;50.846;4.078;2023-02-01T01:14:28;23.80;;;5.35;;
20657;SDS011;10488;50.846;4.078;2023-02-01T01:16:55;23.58;;;5.30;;
20657;SDS011;10488;50.846;4.078;2023-02-01T01:19:23;27.67;;;6.20;;
20657;SDS011;10488;50.846;4.078;2023-02-01T01:21:48;21.00;;;4.80;;
20657;SDS011;10488;50.846;4.078;2023-02-01T01:24:16;22.13;;;4.80;;
20657;SDS011;10488;50.846;4.078;2023-02-01T01:26:43;22.65;;;5.68;;
20657;SDS011;10488;50.846;4.078;2023-02-01T01:29:08;20.73;;;6.15;;
20657;SDS011;10488;50.846;4.078;2023-02-01T01:31:35;16.65;;;5.05;;
20657;SDS011;10488;50.846;4.078;2023-02-01T01:34:01;18.23;;;4.85;;
20657;SDS011;10488;50.846;4.078;2023-02-01T01:36:28;18.60;;;5.15;;
20657;SDS011;10488;50.846;4.078;2023-02-01T01:38:56;23.23;;;5.18;;
20657;SDS011;10488;50.846;4.078;2023-02-01T01:41:25;29.23;;;4.95;;
20657;SDS011;10488;50.846;4.078;2023-02-01T01:43:58;21.30;;;5.10;;
20657;SDS011;10488;50.846;4.078;2023-02-01T01:46:29;24.77;;;6.40;;
20657;SDS011;10488;50.846;4.078;2023-02-01T01:51:40;23.25;;;4.95;;
20657;SDS011;10488;50.846;4.078;2023-02-01T02:00:12;19.88;;;5.35;;
20657;SDS011;10488;50.846;4.078;2023-02-01T02:02:41;22.13;;;5.35;;
20657;SDS011;10488;50.846;4.078;2023-02-01T02:05:13;27.40;;;7.63;;
20657;SDS011;10488;50.846;4.078;2023-02-01T02:07:42;22.27;;;5.05;;
20657;SDS011;10488;50.846;4.078;2023-02-01T02:10:12;20.25;;;4.90;;
20657;SDS011;10488;50.846;4.078;2023-02-01T02:12:42;19.02;;;5.80;;
20657;SDS011;10488;50.846;4.078;2023-02-01T02:15:11;23.45;;;5.47;;
20657;SDS011;10488;50.846;4.078;2023-02-01T02:20:22;22.30;;;5.22;;
20657;SDS011;10488;50.846;4.078;2023-02-01T02:28:59;20.67;;;4.95;;
20657;SDS011;10488;50.846;4.078;2023-02-01T02:34:26;22.08;;;5.45;;
20657;SDS011;10488;50.846;4.078;2023-02-01T02:42:39;21.75;;;4.30;;
20657;SDS011;10488;50.846;4.078;2023-02-01T02:48:36;23.05;;;4.55;;
20657;SDS011;10488;50.846;4.078;2023-02-01T02:51:20;24.95;;;4.90;;
20657;SDS011;10488;50.846;4.078;2023-02-01T02:54:21;17.92;;;3.72;;
20657;SDS011;10488;50.846;4.078;2023-02-01T02:57:22;20.42;;;4.32;;
20657;SDS011;10488;50.846;4.078;2023-02-01T03:00:17;24.85;;;5.20;;
20657;SDS011;10488;50.846;4.078;2023-02-01T03:03:04;17.50;;;4.00;;
20657;SDS011;10488;50.846;4.078;2023-02-01T03:05:49;16.73;;;4.28;;
20657;SDS011;10488;50.846;4.078;2023-02-01T03:08:18;23.17;;;4.00;;
20657;SDS011;10488;50.846;4.078;2023-02-01T03:11:00;19.80;;;4.47;;
20657;SDS011;10488;50.846;4.078;2023-02-01T03:16:21;28.77;;;4.70;;
20657;SDS011;10488;50.846;4.078;2023-02-01T03:18:57;19.65;;;4.97;;
20657;SDS011;10488;50.846;4.078;2023-02-01T03:24:44;32.63;;;4.35;;
20657;SDS011;10488;50.846;4.078;2023-02-01T03:29:45;16.43;;;3.77;;
20657;SDS011;10488;50.846;4.078;2023-02-01T03:32:19;18.70;;;4.20;;
20657;SDS011;10488;50.846;4.078;2023-02-01T03:34:46;19.95;;;4.53;;
20657;SDS011;10488;50.846;4.078;2023-02-01T03:37:14;19.88;;;4.78;;
20657;SDS011;10488;50.846;4.078;2023-02-01T03:40:05;20.80;;;3.87;;
20657;SDS011;10488;50.846;4.078;2023-02-01T03:45:13;23.80;;;4.90;;
20657;SDS011;10488;50.846;4.078;2023-02-01T03:47:48;17.50;;;4.07;;
20657;SDS011;10488;50.846;4.078;2023-02-01T03:50:22;20.40;;;4.30;;
20657;SDS011;10488;50.846;4.078;2023-02-01T03:55:19;18.50;;;4.60;;
20657;SDS011;10488;50.846;4.078;2023-02-01T03:57:58;20.17;;;3.80;;
20657;SDS011;10488;50.846;4.078;2023-02-01T04:00:32;20.90;;;3.73;;
20657;SDS011;10488;50.846;4.078;2023-02-01T04:02:58;23.33;;;3.83;;
20657;SDS011;10488;50.846;4.078;2023-02-01T04:05:24;23.53;;;4.43;;
20657;SDS011;10488;50.846;4.078;2023-02-01T04:07:51;25.20;;;4.73;;
20657;SDS011;10488;50.846;4.078;2023-02-01T04:10:18;18.37;;;3.90;;
20657;SDS011;10488;50.846;4.078;2023-02-01T04:12:44;20.00;;;4.60;;
20657;SDS011;10488;50.846;4.078;2023-02-01T04:15:13;25.63;;;3.97;;
20657;SDS011;10488;50.846;4.078;2023-02-01T04:17:41;22.33;;;4.53;;
20657;SDS011;10488;50.846;4.078;2023-02-01T04:20:07;21.13;;;3.93;;
20657;SDS011;10488;50.846;4.078;2023-02-01T04:22:34;25.23;;;3.87;;
20657;SDS011;10488;50.846;4.078;2023-02-01T04:25:01;22.27;;;4.43;;
20657;SDS011;10488;50.846;4.078;2023-02-01T04:27:27;21.27;;;4.47;;
20657;SDS011;10488;50.846;4.078;2023-02-01T04:29:53;15.37;;;3.33;;
20657;SDS011;10488;50.846;4.078;2023-02-01T04:32:18;18.73;;;4.73;;
20657;SDS011;10488;50.846;4.078;2023-02-01T04:34:45;18.37;;;4.37;;
20657;SDS011;10488;50.846;4.078;2023-02-01T04:37:13;20.30;;;3.97;;
20657;SDS011;10488;50.846;4.078;2023-02-01T04:39:42;20.70;;;4.27;;
20657;SDS011;10488;50.846;4.078;2023-02-01T04:42:07;16.97;;;4.90;;
20657;SDS011;10488;50.846;4.078;2023-02-01T04:44:33;35.27;;;4.80;;
20657;SDS011;10488;50.846;4.078;2023-02-01T04:47:02;18.80;;;3.93;;
20657;SDS011;10488;50.846;4.078;2023-02-01T04:49:28;28.10;;;4.47;;
20657;SDS011;10488;50.846;4.078;2023-02-01T04:51:55;20.17;;;3.83;;
20657;SDS011;10488;50.846;4.078;2023-02-01T04:54:21;25.20;;;4.50;;
20657;SDS011;10488;50.846;4.078;2023-02-01T04:56:48;29.90;;;4.83;;
20657;SDS011;10488;50.846;4.078;2023-02-01T04:59:14;26.17;;;5.00;;
20657;SDS011;10488;50.846;4.078;2023-02-01T05:01:41;19.23;;;5.10;;
20657;SDS011;10488;50.846;4.078;2023-02-01T05:04:10;23.77;;;4.13;;
20657;SDS011;10488;50.846;4.078;2023-02-01T05:06:36;29.97;;;5.40;;
20657;SDS011;10488;50.846;4.078;2023-02-01T05:09:02;17.80;;;3.37;;
20657;SDS011;10488;50.846;4.078;2023-02-01T05:11:29;26.50;;;4.10;;
20657;SDS011;10488;50.846;4.078;2023-02-01T05:14:13;25.53;;;3.80;;
20657;SDS011;10488;50.846;4.078;2023-02-01T05:16:39;25.07;;;4.30;;
20657;SDS011;10488;50.846;4.078;2023-02-01T05:19:06;20.73;;;4.63;;
20657;SDS011;10488;50.846;4.078;2023-02-01T05:21:33;21.70;;;4.67;;
20657;SDS011;10488;50.846;4.078;2023-02-01T05:23:59;26.10;;;4.33;;
20657;SDS011;10488;50.846;4.078;2023-02-01T05:26:45;20.17;;;3.53;;
20657;SDS011;10488;50.846;4.078;2023-02-01T05:29:12;13.37;;;3.17;;
20657;SDS011;10488;50.846;4.078;2023-02-01T05:31:38;27.33;;;3.88;;
20657;SDS011;10488;50.846;4.078;2023-02-01T05:34:04;22.83;;;4.20;;
20657;SDS011;10488;50.846;4.078;2023-02-01T05:36:31;18.80;;;4.23;;
20657;SDS011;10488;50.846;4.078;2023-02-01T05:38:58;23.23;;;4.40;;
20657;SDS011;10488;50.846;4.078;2023-02-01T05:41:24;16.77;;;4.63;;
20657;SDS011;10488;50.846;4.078;2023-02-01T05:43:52;18.37;;;4.80;;
20657;SDS011;10488;50.846;4.078;2023-02-01T05:46:19;21.67;;;4.27;;
20657;SDS011;10488;50.846;4.078;2023-02-01T05:48:45;29.67;;;5.03;;
20657;SDS011;10488;50.846;4.078;2023-02-01T05:51:11;16.57;;;3.97;;
20657;SDS011;10488;50.846;4.078;2023-02-01T05:53:43;20.57;;;5.20;;
20657;SDS011;10488;50.846;4.078;2023-02-01T05:56:08;29.90;;;4.80;;
20657;SDS011;10488;50.846;4.078;2023-02-01T05:58:34;27.93;;;5.10;;
20657;SDS011;10488;50.846;4.078;2023-02-01T06:01:01;22.47;;;4.27;;
20657;SDS011;10488;50.846;4.078;2023-02-01T06:03:29;16.77;;;3.50;;
20657;SDS011;10488;50.846;4.078;2023-02-01T06:05:54;17.67;;;3.97;;
20657;SDS011;10488;50.846;4.078;2023-02-01T06:08:22;18.03;;;4.33;;
20657;SDS011;10488;50.846;4.078;2023-02-01T06:10:56;20.53;;;4.20;;
20657;SDS011;10488;50.846;4.078;2023-02-01T06:13:24;23.57;;;4.27;;
20657;SDS011;10488;50.846;4.078;2023-02-01T06:15:50;23.00;;;3.40;;
20657;SDS011;10488;50.846;4.078;2023-02-01T06:18:16;18.67;;;4.17;;
20657;SDS011;10488;50.846;4.078;2023-02-01T06:20:41;27.23;;;5.57;;
20657;SDS011;10488;50.846;4.078;2023-02-01T06:23:08;18.63;;;4.00;;
20657;SDS011;10488;50.846;4.078;2023-02-01T06:25:34;21.00;;;3.33;;
20657;SDS011;10488;50.846;4.078;2023-02-01T06:28:03;21.20;;;4.17;;
20657;SDS011;10488;50.846;4.078;2023-02-01T06:30:31;22.17;;;4.30;;
20657;SDS011;10488;50.846;4.078;2023-02-01T06:32:58;24.50;;;4.30;;
20657;SDS011;10488;50.846;4.078;2023-02-01T06:35:25;25.83;;;4.77;;
20657;SDS011;10488;50.846;4.078;2023-02-01T06:37:52;26.20;;;4.53;;
20657;SDS011;10488;50.846;4.078;2023-02-01T06:40:20;17.43;;;4.47;;
20657;SDS011;10488;50.846;4.078;2023-02-01T06:42:47;24.77;;;4.87;;
20657;SDS011;10488;50.846;4.078;2023-02-01T06:45:15;25.93;;;5.80;;
20657;SDS011;10488;50.846;4.078;2023-02-01T06:47:43;33.40;;;6.00;;
20657;SDS011;10488;50.846;4.078;2023-02-01T06:50:11;26.00;;;4.80;;
20657;SDS011;10488;50.846;4.078;2023-02-01T06:52:37;29.97;;;5.83;;
20657;SDS011;10488;50.846;4.078;2023-02-01T06:55:05;21.23;;;4.93;;
20657;SDS011;10488;50.846;4.078;2023-02-01T06:57:32;22.73;;;4.27;;
20657;SDS011;10488;50.846;4.078;2023-02-01T07:00:02;23.90;;;4.13;;
20657;SDS011;10488;50.846;4.078;2023-02-01T07:02:28;25.47;;;5.50;;
20657;SDS011;10488;50.846;4.078;2023-02-01T07:04:55;29.87;;;5.27;;
20657;SDS011;10488;50.846;4.078;2023-02-01T07:07:22;28.23;;;5.50;;
20657;SDS011;10488;50.846;4.078;2023-02-01T07:09:52;24.63;;;5.03;;
20657;SDS011;10488;50.846;4.078;2023-02-01T07:12:50;19.37;;;4.17;;
20657;SDS011;10488;50.846;4.078;2023-02-01T07:15:18;28.37;;;4.33;;
20657;SDS011;10488;50.846;4.078;2023-02-01T07:17:44;25.27;;;5.43;;
20657;SDS011;10488;50.846;4.078;2023-02-01T07:20:12;20.30;;;5.17;;
20657;SDS011;10488;50.846;4.078;2023-02-01T07:22:39;26.87;;;4.60;;
20657;SDS011;10488;50.846;4.078;2023-02-01T07:25:05;26.63;;;5.07;;
20657;SDS011;10488;50.846;4.078;2023-02-01T07:27:35;22.93;;;5.00;;
20657;SDS011;10488;50.846;4.078;2023-02-01T07:30:02;24.50;;;5.00;;
20657;SDS011;10488;50.846;4.078;2023-02-01T07:32:31;25.23;;;3.83;;
20657;SDS011;10488;50.846;4.078;2023-02-01T07:34:57;21.87;;;4.00;;
20657;SDS011;10488;50.846;4.078;2023-02-01T07:37:25;24.30;;;5.23;;
20657;SDS011;10488;50.846;4.078;2023-02-01T07:39:51;31.88;;;5.60;;
20657;SDS011;10488;50.846;4.078;2023-02-01T07:42:17;27.10;;;4.40;;
20657;SDS011;10488;50.846;4.078;2023-02-01T07:44:43;26.07;;;5.23;;
20657;SDS011;10488;50.846;4.078;2023-02-01T07:47:09;26.63;;;4.40;;
20657;SDS011;10488;50.846;4.078;2023-02-01T07:49:34;28.50;;;6.07;;
20657;SDS011;10488;50.846;4.078;2023-02-01T07:52:01;22.23;;;5.00;;
20657;SDS011;10488;50.846;4.078;2023-02-01T07:54:28;17.80;;;4.77;;
20657;SDS011;10488;50.846;4.078;2023-02-01T07:56:53;19.83;;;4.03;;
20657;SDS011;10488;50.846;4.078;2023-02-01T07:59:20;28.37;;;5.63;;
20657;SDS011;10488;50.846;4.078;2023-02-01T08:01:47;17.27;;;4.60;;
20657;SDS011;10488;50.846;4.078;2023-02-01T08:04:14;19.27;;;4.47;;
20657;SDS011;10488;50.846;4.078;2023-02-01T08:06:41;28.35;;;4.03;;
20657;SDS011;10488;50.846;4.078;2023-02-01T08:09:07;28.33;;;5.67;;
20657;SDS011;10488;50.846;4.078;2023-02-01T08:11:35;20.13;;;4.83;;
20657;SDS011;10488;50.846;4.078;2023-02-01T08:14:02;28.52;;;4.95;;
20657;SDS011;10488;50.846;4.078;2023-02-01T08:16:29;22.92;;;4.38;;
20657;SDS011;10488;50.846;4.078;2023-02-01T08:18:57;19.25;;;4.85;;
20657;SDS011;10488;50.846;4.078;2023-02-01T08:21:25;21.13;;;4.15;;
20657;SDS011;10488;50.846;4.078;2023-02-01T08:24:03;19.13;;;4.38;;
20657;SDS011;10488;50.846;4.078;2023-02-01T08:26:32;23.42;;;4.43;;
20657;SDS011;10488;50.846;4.078;2023-02-01T08:28:58;23.85;;;4.75;;
20657;SDS011;10488;50.846;4.078;2023-02-01T08:31:28;30.42;;;5.55;;
20657;SDS011;10488;50.846;4.078;2023-02-01T08:33:57;24.88;;;3.83;;
20657;SDS011;10488;50.846;4.078;2023-02-01T08:36:26;21.33;;;4.70;;
20657;SDS011;10488;50.846;4.078;2023-02-01T08:38:53;19.77;;;4.70;;
20657;SDS011;10488;50.846;4.078;2023-02-01T08:41:20;23.35;;;4.25;;
20657;SDS011;10488;50.846;4.078;2023-02-01T08:43:48;17.23;;;4.90;;
20657;SDS011;10488;50.846;4.078;2023-02-01T08:46:14;22.90;;;4.30;;
20657;SDS011;10488;50.846;4.078;2023-02-01T08:48:40;17.67;;;4.17;;
20657;SDS011;10488;50.846;4.078;2023-02-01T08:51:07;20.63;;;3.83;;
20657;SDS011;10488;50.846;4.078;2023-02-01T08:53:35;16.60;;;4.00;;
20657;SDS011;10488;50.846;4.078;2023-02-01T08:56:01;26.55;;;4.18;;
20657;SDS011;10488;50.846;4.078;2023-02-01T08:58:28;14.90;;;3.40;;
20657;SDS011;10488;50.846;4.078;2023-02-01T09:00:54;15.27;;;3.97;;
20657;SDS011;10488;50.846;4.078;2023-02-01T09:03:22;20.63;;;4.30;;
20657;SDS011;10488;50.846;4.078;2023-02-01T09:05:49;21.95;;;4.80;;
20657;SDS011;10488;50.846;4.078;2023-02-01T09:08:14;22.00;;;5.80;;
20657;SDS011;10488;50.846;4.078;2023-02-01T09:10:41;20.90;;;4.55;;
20657;SDS011;10488;50.846;4.078;2023-02-01T09:13:08;16.58;;;4.78;;
20657;SDS011;10488;50.846;4.078;2023-02-01T09:15:34;19.43;;;6.23;;
20657;SDS011;10488;50.846;4.078;2023-02-01T09:18:01;15.73;;;3.72;;
20657;SDS011;10488;50.846;4.078;2023-02-01T09:20:27;26.38;;;6.63;;
20657;SDS011;10488;50.846;4.078;2023-02-01T09:22:52;27.85;;;4.80;;
20657;SDS011;10488;50.846;4.078;2023-02-01T09:25:20;17.30;;;4.65;;
20657;SDS011;10488;50.846;4.078;2023-02-01T09:27:52;28.80;;;4.70;;
20657;SDS011;10488;50.846;4.078;2023-02-01T09:30:17;27.58;;;4.50;;
20657;SDS011;10488;50.846;4.078;2023-02-01T09:32:44;17.30;;;4.72;;
20657;SDS011;10488;50.846;4.078;2023-02-01T09:35:10;18.05;;;4.40;;
20657;SDS011;10488;50.846;4.078;2023-02-01T09:37:35;20.00;;;3.50;;
20657;SDS011;10488;50.846;4.078;2023-02-01T09:40:03;18.52;;;4.53;;
20657;SDS011;10488;50.846;4.078;2023-02-01T09:48:00;20.35;;;4.03;;
20657;SDS011;10488;50.846;4.078;2023-02-01T09:50:39;21.40;;;5.15;;
20657;SDS011;10488;50.846;4.078;2023-02-01T09:53:21;16.15;;;4.13;;
20657;SDS011;10488;50.846;4.078;2023-02-01T09:55:55;20.02;;;3.63;;
20657;SDS011;10488;50.846;4.078;2023-02-01T10:01:02;20.42;;;4.20;;
20657;SDS011;10488;50.846;4.078;2023-02-01T10:03:34;24.67;;;4.38;;
20657;SDS011;10488;50.846;4.078;2023-02-01T10:11:43;20.08;;;4.20;;
20657;SDS011;10488;50.846;4.078;2023-02-01T10:22:30;26.65;;;4.05;;
20657;SDS011;10488;50.846;4.078;2023-02-01T10:25:04;19.38;;;4.68;;
20657;SDS011;10488;50.846;4.078;2023-02-01T10:27:40;14.00;;;3.63;;
20657;SDS011;10488;50.846;4.078;2023-02-01T10:30:29;18.13;;;3.78;;
20657;SDS011;10488;50.846;4.078;2023-02-01T10:33:07;11.90;;;3.55;;
20657;SDS011;10488;50.846;4.078;2023-02-01T10:35:59;18.98;;;3.47;;
20657;SDS011;10488;50.846;4.078;2023-02-01T10:38:35;13.88;;;3.25;;
20657;SDS011;10488;50.846;4.078;2023-02-01T10:41:17;14.25;;;3.75;;
20657;SDS011;10488;50.846;4.078;2023-02-01T10:43:46;15.13;;;3.97;;
20657;SDS011;10488;50.846;4.078;2023-02-01T10:46:16;15.07;;;3.80;;
20657;SDS011;10488;50.846;4.078;2023-02-01T10:48:42;24.42;;;4.50;;
20657;SDS011;10488;50.846;4.078;2023-02-01T10:53:50;18.20;;;2.95;;
20657;SDS011;10488;50.846;4.078;2023-02-01T10:56:22;14.70;;;2.97;;
20657;SDS011;10488;50.846;4.078;2023-02-01T10:58:52;22.10;;;3.88;;
20657;SDS011;10488;50.846;4.078;2023-02-01T11:01:33;16.13;;;3.10;;
20657;SDS011;10488;50.846;4.078;2023-02-01T11:04:04;19.52;;;4.18;;
20657;SDS011;10488;50.846;4.078;2023-02-01T11:06:45;11.77;;;3.13;;
20657;SDS011;10488;50.846;4.078;2023-02-01T11:09:23;18.85;;;3.05;;
20657;SDS011;10488;50.846;4.078;2023-02-01T11:14:17;18.50;;;3.08;;
20657;SDS011;10488;50.846;4.078;2023-02-01T11:16:56;9.95;;;2.97;;
20657;SDS011;10488;50.846;4.078;2023-02-01T11:19:25;13.18;;;2.92;;
20657;SDS011;10488;50.846;4.078;2023-02-01T11:21:52;18.10;;;3.85;;
20657;SDS011;10488;50.846;4.078;2023-02-01T11:24:23;14.07;;;3.17;;
20657;SDS011;10488;50.846;4.078;2023-02-01T11:26:55;15.45;;;3.38;;
20657;SDS011;10488;50.846;4.078;2023-02-01T11:29:22;19.45;;;3.03;;
20657;SDS011;10488;50.846;4.078;2023-02-01T11:31:59;11.38;;;2.88;;
20657;SDS011;10488;50.846;4.078;2023-02-01T11:37:20;13.93;;;2.22;;
20657;SDS011;10488;50.846;4.078;2023-02-01T11:39:56;17.08;;;2.45;;
20657;SDS011;10488;50.846;4.078;2023-02-01T11:42:23;14.82;;;2.67;;
20657;SDS011;10488;50.846;4.078;2023-02-01T11:44:50;14.15;;;2.60;;
20657;SDS011;10488;50.846;4.078;2023-02-01T11:47:24;18.38;;;2.70;;
20657;SDS011;10488;50.846;4.078;2023-02-01T11:50:00;13.90;;;2.13;;
20657;SDS011;10488;50.846;4.078;2023-02-01T11:58:56;12.32;;;2.75;;
20657;SDS011;10488;50.846;4.078;2023-02-01T12:06:47;11.65;;;2.40;;
20657;SDS011;10488;50.846;4.078;2023-02-01T12:11:54;12.43;;;2.30;;
20657;SDS011;10488;50.846;4.078;2023-02-01T12:31:32;10.45;;;2.10;;
20657;SDS011;10488;50.846;4.078;2023-02-01T12:36:54;10.77;;;2.22;;
20657;SDS011;10488;50.846;4.078;2023-02-01T12:39:37;13.10;;;2.00;;
20657;SDS011;10488;50.846;4.078;2023-02-01T12:42:11;11.27;;;1.88;;
20657;SDS011;10488;50.846;4.078;2023-02-01T12:52:39;8.70;;;2.58;;
20657;SDS011;10488;50.846;4.078;2023-02-01T12:55:15;9.45;;;2.25;;
20657;SDS011;10488;50.846;4.078;2023-02-01T12:58:07;10.32;;;2.28;;
20657;SDS011;10488;50.846;4.078;2023-02-01T13:00:52;9.35;;;2.03;;
20657;SDS011;10488;50.846;4.078;2023-02-01T13:06:26;10.18;;;2.20;;
20657;SDS011;10488;50.846;4.078;2023-02-01T13:15:01;9.13;;;1.83;;
20657;SDS011;10488;50.846;4.078;2023-02-01T13:17:47;13.38;;;1.98;;
20657;SDS011;10488;50.846;4.078;2023-02-01T13:20:19;14.18;;;2.30;;
20657;SDS011;10488;50.846;4.078;2023-02-01T13:22:51;8.98;;;1.88;;
20657;SDS011;10488;50.846;4.078;2023-02-01T13:25:34;8.40;;;1.60;;
20657;SDS011;10488;50.846;4.078;2023-02-01T13:28:06;12.00;;;2.38;;
20657;SDS011;10488;50.846;4.078;2023-02-01T13:36:20;14.32;;;1.77;;
20657;SDS011;10488;50.846;4.078;2023-02-01T13:44:50;13.20;;;2.03;;
20657;SDS011;10488;50.846;4.078;2023-02-01T13:50:00;8.38;;;1.67;;
20657;SDS011;10488;50.846;4.078;2023-02-01T13:52:39;9.80;;;2.10;;
20657;SDS011;10488;50.846;4.078;2023-02-01T13:57:46;7.55;;;1.90;;
20657;SDS011;10488;50.846;4.078;2023-02-01T14:00:24;8.60;;;2.20;;
20657;SDS011;10488;50.846;4.078;2023-02-01T14:23:40;8.85;;;2.30;;
20657;SDS011;10488;50.846;4.078;2023-02-01T14:26:18;13.02;;;1.95;;
20657;SDS011;10488;50.846;4.078;2023-02-01T14:33:58;9.35;;;2.05;;
20657;SDS011;10488;50.846;4.078;2023-02-01T14:36:38;8.25;;;2.45;;
20657;SDS011;10488;50.846;4.078;2023-02-01T14:39:20;14.43;;;2.60;;
20657;SDS011;10488;50.846;4.078;2023-02-01T14:41:53;10.45;;;1.98;;
20657;SDS011;10488;50.846;4.078;2023-02-01T14:44:32;10.77;;;3.72;;
20657;SDS011;10488;50.846;4.078;2023-02-01T14:47:06;10.35;;;2.22;;
20657;SDS011;10488;50.846;4.078;2023-02-01T14:49:32;10.90;;;2.65;;
20657;SDS011;10488;50.846;4.078;2023-02-01T14:52:02;17.50;;;2.67;;
20657;SDS011;10488;50.846;4.078;2023-02-01T14:54:37;13.25;;;2.60;;
20657;SDS011;10488;50.846;4.078;2023-02-01T14:57:09;14.77;;;5.03;;
20657;SDS011;10488;50.846;4.078;2023-02-01T14:59:40;15.95;;;5.30;;
20657;SDS011;10488;50.846;4.078;2023-02-01T15:02:21;16.75;;;2.83;;
20657;SDS011;10488;50.846;4.078;2023-02-01T15:04:54;22.48;;;5.53;;
20657;SDS011;10488;50.846;4.078;2023-02-01T15:07:21;13.57;;;3.17;;
20657;SDS011;10488;50.846;4.078;2023-02-01T15:09:52;15.15;;;3.42;;
20657;SDS011;10488;50.846;4.078;2023-02-01T15:12:24;10.85;;;3.65;;
20657;SDS011;10488;50.846;4.078;2023-02-01T15:17:53;11.32;;;3.00;;
20657;SDS011;10488;50.846;4.078;2023-02-01T15:20:22;13.40;;;3.22;;
20657;SDS011;10488;50.846;4.078;2023-02-01T15:22:53;14.60;;;3.13;;
20657;SDS011;10488;50.846;4.078;2023-02-01T15:25:29;12.82;;;2.88;;
20657;SDS011;10488;50.846;4.078;2023-02-01T15:28:01;15.68;;;3.08;;
20657;SDS011;10488;50.846;4.078;2023-02-01T15:30:29;17.40;;;3.05;;
20657;SDS011;10488;50.846;4.078;2023-02-01T15:33:07;14.73;;;2.90;;
20657;SDS011;10488;50.846;4.078;2023-02-01T15:43:21;11.70;;;3.05;;
20657;SDS011;10488;50.846;4.078;2023-02-01T15:45:47;13.20;;;3.85;;
20657;SDS011;10488;50.846;4.078;2023-02-01T15:48:16;11.77;;;2.67;;
20657;SDS011;10488;50.846;4.078;2023-02-01T15:50:47;24.70;;;3.72;;
20657;SDS011;10488;50.846;4.078;2023-02-01T15:53:15;16.63;;;3.50;;
20657;SDS011;10488;50.846;4.078;2023-02-01T15:55:46;23.60;;;3.80;;
20657;SDS011;10488;50.846;4.078;2023-02-01T15:58:22;18.55;;;4.10;;
20657;SDS011;10488;50.846;4.078;2023-02-01T16:00:55;16.85;;;4.43;;
20657;SDS011;10488;50.846;4.078;2023-02-01T16:06:44;15.90;;;3.83;;
20657;SDS011;10488;50.846;4.078;2023-02-01T16:14:00;21.33;;;4.95;;
20657;SDS011;10488;50.846;4.078;2023-02-01T16:16:27;31.35;;;10.05;;
20657;SDS011;10488;50.846;4.078;2023-02-01T16:18:59;18.05;;;5.18;;
20657;SDS011;10488;50.846;4.078;2023-02-01T16:21:25;18.83;;;4.57;;
20657;SDS011;10488;50.846;4.078;2023-02-01T16:23:52;26.05;;;4.68;;
20657;SDS011;10488;50.846;4.078;2023-02-01T16:26:19;18.20;;;4.45;;
20657;SDS011;10488;50.846;4.078;2023-02-01T16:28:46;19.58;;;4.65;;
20657;SDS011;10488;50.846;4.078;2023-02-01T16:31:16;17.42;;;4.13;;
20657;SDS011;10488;50.846;4.078;2023-02-01T16:33:50;20.80;;;4.03;;
20657;SDS011;10488;50.846;4.078;2023-02-01T16:36:16;14.00;;;3.58;;
20657;SDS011;10488;50.846;4.078;2023-02-01T16:38:43;17.55;;;3.92;;
20657;SDS011;10488;50.846;4.078;2023-02-01T16:41:12;16.52;;;3.67;;
20657;SDS011;10488;50.846;4.078;2023-02-01T16:43:38;23.65;;;3.88;;
20657;SDS011;10488;50.846;4.078;2023-02-01T16:46:08;19.17;;;4.28;;
20657;SDS011;10488;50.846;4.078;2023-02-01T16:48:42;22.35;;;4.30;;
20657;SDS011;10488;50.846;4.078;2023-02-01T16:51:12;20.80;;;4.85;;
20657;SDS011;10488;50.846;4.078;2023-02-01T16:53:41;18.25;;;4.00;;
20657;SDS011;10488;50.846;4.078;2023-02-01T16:56:14;22.77;;;5.00;;
20657;SDS011;10488;50.846;4.078;2023-02-01T16:58:42;18.55;;;4.25;;
20657;SDS011;10488;50.846;4.078;2023-02-01T17:01:09;19.45;;;4.35;;
20657;SDS011;10488;50.846;4.078;2023-02-01T17:03:38;14.25;;;3.58;;
20657;SDS011;10488;50.846;4.078;2023-02-01T17:06:04;18.70;;;3.40;;
20657;SDS011;10488;50.846;4.078;2023-02-01T17:08:33;16.88;;;3.75;;
20657;SDS011;10488;50.846;4.078;2023-02-01T17:11:02;19.65;;;3.67;;
20657;SDS011;10488;50.846;4.078;2023-02-01T17:13:29;25.85;;;4.28;;
20657;SDS011;10488;50.846;4.078;2023-02-01T17:15:57;14.25;;;3.70;;
20657;SDS011;10488;50.846;4.078;2023-02-01T17:18:28;27.20;;;4.68;;
20657;SDS011;10488;50.846;4.078;2023-02-01T17:20:58;21.33;;;3.80;;
20657;SDS011;10488;50.846;4.078;2023-02-01T17:23:26;15.57;;;4.50;;
20657;SDS011;10488;50.846;4.078;2023-02-01T17:25:54;25.67;;;4.97;;
20657;SDS011;10488;50.846;4.078;2023-02-01T17:28:22;17.95;;;4.82;;
20657;SDS011;10488;50.846;4.078;2023-02-01T17:30:48;15.32;;;4.60;;
20657;SDS011;10488;50.846;4.078;2023-02-01T17:33:17;24.38;;;4.47;;
20657;SDS011;10488;50.846;4.078;2023-02-01T17:35:54;19.40;;;5.03;;
20657;SDS011;10488;50.846;4.078;2023-02-01T17:40:49;25.70;;;5.45;;
20657;SDS011;10488;50.846;4.078;2023-02-01T17:43:19;24.40;;;5.60;;
20657;SDS011;10488;50.846;4.078;2023-02-01T17:48:15;21.02;;;4.88;;
20657;SDS011;10488;50.846;4.078;2023-02-01T17:50:43;28.17;;;6.00;;
20657;SDS011;10488;50.846;4.078;2023-02-01T17:53:12;19.02;;;4.95;;
20657;SDS011;10488;50.846;4.078;2023-02-01T17:55:44;21.60;;;4.72;;
20657;SDS011;10488;50.846;4.078;2023-02-01T17:58:13;19.85;;;5.50;;
20657;SDS011;10488;50.846;4.078;2023-02-01T18:00:39;23.58;;;4.75;;